Weather at Hoy/Longhope Airfield [CLOSED]

Public forecast

Using degrees Celsius for public forecast. Weather courtesy of forecast.io.

Closest aviation weather report (METAR) to Hoy/Longhope Airfield

Closest report is Kirkwall Airport, 13.9 nm (25.7 km) NE.

2024/07/21 12:50 (retrieved 32 minutes ago)

EGPA 211250Z 25014KT 9999 SCT020 16/10 Q1004

Closest aviation forecast (TAF) to Hoy/Longhope Airfield

Closest forecast is RAF Lossiemouth, 65.4 nm (121.0 km) S.

2024/07/21 12:42 (retrieved 40 minutes ago)

TAF EGQS 211035Z 2112/2206 25012KT 9999 FEW034 PROB30 TEMPO 2114/2120 7000 -SHRA